sensor_id;sensor_type;location;lat;lon;timestamp;temperature;humidity
70548;DHT22;58099;43.406;3.698;2023-05-17T04:25:09;13.50;92.70
70548;DHT22;58099;43.406;3.698;2023-05-17T04:27:35;13.50;92.80
70548;DHT22;58099;43.406;3.698;2023-05-17T04:30:01;13.50;92.80
70548;DHT22;58099;43.406;3.698;2023-05-17T04:32:27;13.40;92.50
70548;DHT22;58099;43.406;3.698;2023-05-17T04:34:53;13.40;92.60
70548;DHT22;58099;43.406;3.698;2023-05-17T04:37:18;13.50;92.70
70548;DHT22;58099;43.406;3.698;2023-05-17T04:39:44;13.50;92.70
70548;DHT22;58099;43.406;3.698;2023-05-17T04:42:10;13.50;92.70
70548;DHT22;58099;43.406;3.698;2023-05-17T04:44:36;13.40;92.60
70548;DHT22;58099;43.406;3.698;2023-05-17T04:47:02;13.40;92.70
70548;DHT22;58099;43.406;3.698;2023-05-17T04:49:28;13.50;92.90
70548;DHT22;58099;43.406;3.698;2023-05-17T04:51:53;13.50;92.70
70548;DHT22;58099;43.406;3.698;2023-05-17T04:54:19;13.40;92.70
70548;DHT22;58099;43.406;3.698;2023-05-17T04:56:45;13.40;92.40
70548;DHT22;58099;43.406;3.698;2023-05-17T04:59:11;13.40;92.40
70548;DHT22;58099;43.406;3.698;2023-05-17T05:01:36;13.50;92.80
70548;DHT22;58099;43.406;3.698;2023-05-17T05:04:02;13.50;92.50
70548;DHT22;58099;43.406;3.698;2023-05-17T05:06:31;13.50;92.40
70548;DHT22;58099;43.406;3.698;2023-05-17T05:08:58;13.50;92.40
70548;DHT22;58099;43.406;3.698;2023-05-17T05:11:24;13.50;92.80
70548;DHT22;58099;43.406;3.698;2023-05-17T05:13:50;13.50;92.50
70548;DHT22;58099;43.406;3.698;2023-05-17T05:16:16;13.50;92.10
70548;DHT22;58099;43.406;3.698;2023-05-17T05:18:41;13.50;92.30
70548;DHT22;58099;43.406;3.698;2023-05-17T05:21:07;13.60;92.40
70548;DHT22;58099;43.406;3.698;2023-05-17T05:23:33;13.60;92.60
70548;DHT22;58099;43.406;3.698;2023-05-17T05:25:58;13.70;92.50
70548;DHT22;58099;43.406;3.698;2023-05-17T05:28:24;13.70;92.40
70548;DHT22;58099;43.406;3.698;2023-05-17T05:30:55;13.70;92.50
70548;DHT22;58099;43.406;3.698;2023-05-17T05:33:20;13.80;92.30
70548;DHT22;58099;43.406;3.698;2023-05-17T05:35:46;13.80;91.90
70548;DHT22;58099;43.406;3.698;2023-05-17T05:38:12;13.80;92.00
70548;DHT22;58099;43.406;3.698;2023-05-17T05:40:38;13.80;92.00
70548;DHT22;58099;43.406;3.698;2023-05-17T05:43:04;13.80;91.90
70548;DHT22;58099;43.406;3.698;2023-05-17T05:45:29;13.80;91.70
70548;DHT22;58099;43.406;3.698;2023-05-17T05:47:55;13.80;91.70
70548;DHT22;58099;43.406;3.698;2023-05-17T05:50:21;13.80;91.70
70548;DHT22;58099;43.406;3.698;2023-05-17T05:52:46;13.90;92.00
70548;DHT22;58099;43.406;3.698;2023-05-17T05:55:12;13.90;91.80
70548;DHT22;58099;43.406;3.698;2023-05-17T05:57:38;13.90;91.80
70548;DHT22;58099;43.406;3.698;2023-05-17T06:00:04;14.00;91.80
70548;DHT22;58099;43.406;3.698;2023-05-17T06:02:30;14.00;91.80
70548;DHT22;58099;43.406;3.698;2023-05-17T06:04:56;14.00;91.40
70548;DHT22;58099;43.406;3.698;2023-05-17T06:07:21;14.00;91.60
70548;DHT22;58099;43.406;3.698;2023-05-17T06:09:47;14.10;91.40
70548;DHT22;58099;43.406;3.698;2023-05-17T06:12:13;14.10;91.50
70548;DHT22;58099;43.406;3.698;2023-05-17T06:14:38;14.20;91.60
70548;DHT22;58099;43.406;3.698;2023-05-17T06:17:04;14.30;91.70
70548;DHT22;58099;43.406;3.698;2023-05-17T06:19:30;14.30;91.70
70548;DHT22;58099;43.406;3.698;2023-05-17T06:21:55;14.40;91.80
70548;DHT22;58099;43.406;3.698;2023-05-17T06:24:21;14.40;91.70
70548;DHT22;58099;43.406;3.698;2023-05-17T06:26:47;14.50;91.20
70548;DHT22;58099;43.406;3.698;2023-05-17T06:29:12;14.50;91.30
70548;DHT22;58099;43.406;3.698;2023-05-17T06:31:38;14.60;91.00
70548;DHT22;58099;43.406;3.698;2023-05-17T06:34:04;14.60;91.20
70548;DHT22;58099;43.406;3.698;2023-05-17T06:36:29;14.70;91.20
70548;DHT22;58099;43.406;3.698;2023-05-17T06:38:55;14.70;91.60
70548;DHT22;58099;43.406;3.698;2023-05-17T06:41:21;14.80;91.10
70548;DHT22;58099;43.406;3.698;2023-05-17T06:43:46;14.80;91.30
70548;DHT22;58099;43.406;3.698;2023-05-17T06:46:12;14.90;91.30
70548;DHT22;58099;43.406;3.698;2023-05-17T06:48:38;15.00;91.10
70548;DHT22;58099;43.406;3.698;2023-05-17T06:51:03;15.10;91.00
70548;DHT22;58099;43.406;3.698;2023-05-17T06:53:29;15.10;91.00
70548;DHT22;58099;43.406;3.698;2023-05-17T06:55:55;15.20;91.00
70548;DHT22;58099;43.406;3.698;2023-05-17T06:58:20;15.30;91.10
70548;DHT22;58099;43.406;3.698;2023-05-17T07:00:46;15.30;90.50
70548;DHT22;58099;43.406;3.698;2023-05-17T07:03:12;15.40;90.70
70548;DHT22;58099;43.406;3.698;2023-05-17T07:05:38;15.50;90.70
70548;DHT22;58099;43.406;3.698;2023-05-17T07:08:04;15.60;90.80
70548;DHT22;58099;43.406;3.698;2023-05-17T07:10:30;15.70;90.80
70548;DHT22;58099;43.406;3.698;2023-05-17T07:12:56;15.80;90.90
70548;DHT22;58099;43.406;3.698;2023-05-17T07:15:21;15.90;90.30
70548;DHT22;58099;43.406;3.698;2023-05-17T07:17:47;15.90;90.10
70548;DHT22;58099;43.406;3.698;2023-05-17T07:20:13;15.90;90.20
70548;DHT22;58099;43.406;3.698;2023-05-17T07:22:39;16.00;90.00
70548;DHT22;58099;43.406;3.698;2023-05-17T07:25:05;16.00;90.10
70548;DHT22;58099;43.406;3.698;2023-05-17T07:27:31;16.10;90.10
70548;DHT22;58099;43.406;3.698;2023-05-17T07:29:57;16.10;89.70
70548;DHT22;58099;43.406;3.698;2023-05-17T07:32:22;16.20;89.20
70548;DHT22;58099;43.406;3.698;2023-05-17T07:34:48;16.30;89.30
70548;DHT22;58099;43.406;3.698;2023-05-17T07:37:14;16.50;89.30
70548;DHT22;58099;43.406;3.698;2023-05-17T07:39:39;16.60;89.30
70548;DHT22;58099;43.406;3.698;2023-05-17T07:42:05;16.70;89.30
70548;DHT22;58099;43.406;3.698;2023-05-17T07:44:31;16.80;88.60
70548;DHT22;58099;43.406;3.698;2023-05-17T07:46:57;16.90;88.60
70548;DHT22;58099;43.406;3.698;2023-05-17T07:49:22;17.00;87.90
70548;DHT22;58099;43.406;3.698;2023-05-17T07:51:48;17.00;87.80
70548;DHT22;58099;43.406;3.698;2023-05-17T07:54:24;17.10;87.80
70548;DHT22;58099;43.406;3.698;2023-05-17T07:56:53;17.30;87.60
70548;DHT22;58099;43.406;3.698;2023-05-17T07:59:24;17.40;86.90
70548;DHT22;58099;43.406;3.698;2023-05-17T08:01:50;17.40;87.40
70548;DHT22;58099;43.406;3.698;2023-05-17T08:04:16;17.50;87.00
70548;DHT22;58099;43.406;3.698;2023-05-17T08:06:43;17.60;86.00
70548;DHT22;58099;43.406;3.698;2023-05-17T08:09:11;17.70;86.00
70548;DHT22;58099;43.406;3.698;2023-05-17T08:11:37;17.90;86.40
70548;DHT22;58099;43.406;3.698;2023-05-17T08:14:13;18.00;85.80
70548;DHT22;58099;43.406;3.698;2023-05-17T08:16:43;18.10;85.80
70548;DHT22;58099;43.406;3.698;2023-05-17T08:19:11;18.30;86.00
70548;DHT22;58099;43.406;3.698;2023-05-17T08:21:41;18.50;85.30
70548;DHT22;58099;43.406;3.698;2023-05-17T08:24:07;18.90;86.00
70548;DHT22;58099;43.406;3.698;2023-05-17T08:26:33;19.10;86.00
70548;DHT22;58099;43.406;3.698;2023-05-17T08:29:01;19.30;84.90
70548;DHT22;58099;43.406;3.698;2023-05-17T08:31:27;19.40;85.10
70548;DHT22;58099;43.406;3.698;2023-05-17T08:33:53;19.50;84.80
70548;DHT22;58099;43.406;3.698;2023-05-17T08:36:19;19.90;84.90
70548;DHT22;58099;43.406;3.698;2023-05-17T08:38:44;20.10;84.40
70548;DHT22;58099;43.406;3.698;2023-05-17T08:41:11;20.10;83.50
70548;DHT22;58099;43.406;3.698;2023-05-17T08:43:38;20.20;83.50
70548;DHT22;58099;43.406;3.698;2023-05-17T08:46:04;20.30;83.60
70548;DHT22;58099;43.406;3.698;2023-05-17T08:48:30;20.40;82.80
70548;DHT22;58099;43.406;3.698;2023-05-17T08:51:01;20.60;82.40
70548;DHT22;58099;43.406;3.698;2023-05-17T08:53:27;20.70;81.60
70548;DHT22;58099;43.406;3.698;2023-05-17T08:55:57;20.80;81.70
70548;DHT22;58099;43.406;3.698;2023-05-17T08:58:27;20.80;81.60
70548;DHT22;58099;43.406;3.698;2023-05-17T09:00:57;20.90;81.70
70548;DHT22;58099;43.406;3.698;2023-05-17T09:03:24;21.20;81.00
70548;DHT22;58099;43.406;3.698;2023-05-17T09:05:52;21.30;81.20
70548;DHT22;58099;43.406;3.698;2023-05-17T09:08:21;21.50;80.90
70548;DHT22;58099;43.406;3.698;2023-05-17T09:10:48;21.70;80.00
70548;DHT22;58099;43.406;3.698;2023-05-17T09:13:15;21.70;79.10
70548;DHT22;58099;43.406;3.698;2023-05-17T09:15:46;21.80;79.50
70548;DHT22;58099;43.406;3.698;2023-05-17T09:18:13;21.90;79.40
70548;DHT22;58099;43.406;3.698;2023-05-17T09:20:39;21.90;79.40
70548;DHT22;58099;43.406;3.698;2023-05-17T09:23:08;22.10;78.60
70548;DHT22;58099;43.406;3.698;2023-05-17T09:25:48;22.40;79.10
70548;DHT22;58099;43.406;3.698;2023-05-17T09:28:17;22.50;78.60
70548;DHT22;58099;43.406;3.698;2023-05-17T09:30:46;22.60;78.70
70548;DHT22;58099;43.406;3.698;2023-05-17T09:33:12;22.90;78.20
70548;DHT22;58099;43.406;3.698;2023-05-17T09:35:38;23.30;77.80
70548;DHT22;58099;43.406;3.698;2023-05-17T09:38:12;23.80;78.70
70548;DHT22;58099;43.406;3.698;2023-05-17T09:40:43;24.00;77.70
70548;DHT22;58099;43.406;3.698;2023-05-17T09:43:10;24.10;77.80
70548;DHT22;58099;43.406;3.698;2023-05-17T09:45:36;24.50;76.60
70548;DHT22;58099;43.406;3.698;2023-05-17T09:48:20;24.40;76.00
70548;DHT22;58099;43.406;3.698;2023-05-17T09:50:48;24.40;76.10
70548;DHT22;58099;43.406;3.698;2023-05-17T09:53:33;24.70;77.20
70548;DHT22;58099;43.406;3.698;2023-05-17T09:56:05;24.50;75.70
70548;DHT22;58099;43.406;3.698;2023-05-17T09:58:32;24.70;76.70
70548;DHT22;58099;43.406;3.698;2023-05-17T10:01:00;24.60;75.90
70548;DHT22;58099;43.406;3.698;2023-05-17T10:03:30;24.70;76.00
70548;DHT22;58099;43.406;3.698;2023-05-17T10:05:58;24.80;75.60
70548;DHT22;58099;43.406;3.698;2023-05-17T10:08:25;24.60;75.30
70548;DHT22;58099;43.406;3.698;2023-05-17T10:10:55;24.50;75.20
70548;DHT22;58099;43.406;3.698;2023-05-17T10:13:26;24.70;75.90
70548;DHT22;58099;43.406;3.698;2023-05-17T10:15:54;24.80;75.40
70548;DHT22;58099;43.406;3.698;2023-05-17T10:18:21;24.50;75.10
70548;DHT22;58099;43.406;3.698;2023-05-17T10:20:47;24.70;75.60
70548;DHT22;58099;43.406;3.698;2023-05-17T10:23:14;25.00;75.70
70548;DHT22;58099;43.406;3.698;2023-05-17T10:25:41;25.30;75.00
70548;DHT22;58099;43.406;3.698;2023-05-17T10:28:07;25.30;74.90
70548;DHT22;58099;43.406;3.698;2023-05-17T10:30:34;25.10;75.10
70548;DHT22;58099;43.406;3.698;2023-05-17T10:33:01;25.10;75.00
70548;DHT22;58099;43.406;3.698;2023-05-17T10:35:27;25.10;74.80
70548;DHT22;58099;43.406;3.698;2023-05-17T10:37:54;25.10;74.80
70548;DHT22;58099;43.406;3.698;2023-05-17T10:40:20;25.00;74.70
70548;DHT22;58099;43.406;3.698;2023-05-17T10:42:51;24.80;74.90
70548;DHT22;58099;43.406;3.698;2023-05-17T10:45:23;25.30;75.40
70548;DHT22;58099;43.406;3.698;2023-05-17T10:47:51;26.10;74.60
70548;DHT22;58099;43.406;3.698;2023-05-17T10:50:25;25.20;74.90
70548;DHT22;58099;43.406;3.698;2023-05-17T10:52:52;24.80;75.10
70548;DHT22;58099;43.406;3.698;2023-05-17T10:55:23;24.80;75.80
70548;DHT22;58099;43.406;3.698;2023-05-17T11:00:48;25.30;74.00
70548;DHT22;58099;43.406;3.698;2023-05-17T11:03:25;25.60;74.40
70548;DHT22;58099;43.406;3.698;2023-05-17T11:06:12;25.40;74.70
70548;DHT22;58099;43.406;3.698;2023-05-17T11:12:06;23.60;75.70
70548;DHT22;58099;43.406;3.698;2023-05-17T11:20:29;24.80;75.80
70548;DHT22;58099;43.406;3.698;2023-05-17T11:23:04;25.90;75.20
70548;DHT22;58099;43.406;3.698;2023-05-17T11:25:32;25.10;75.10
70548;DHT22;58099;43.406;3.698;2023-05-17T11:28:03;24.30;75.80
70548;DHT22;58099;43.406;3.698;2023-05-17T11:30:31;23.80;77.10
70548;DHT22;58099;43.406;3.698;2023-05-17T11:33:04;23.10;76.60
70548;DHT22;58099;43.406;3.698;2023-05-17T11:35:38;23.40;77.50
70548;DHT22;58099;43.406;3.698;2023-05-17T11:38:18;23.50;76.70
70548;DHT22;58099;43.406;3.698;2023-05-17T11:40:45;22.60;77.60
70548;DHT22;58099;43.406;3.698;2023-05-17T11:43:19;22.40;78.90
70548;DHT22;58099;43.406;3.698;2023-05-17T11:48:23;22.00;79.70
70548;DHT22;58099;43.406;3.698;2023-05-17T11:50:51;21.90;80.70
70548;DHT22;58099;43.406;3.698;2023-05-17T11:53:17;21.80;80.70
70548;DHT22;58099;43.406;3.698;2023-05-17T11:55:44;21.30;81.80
70548;DHT22;58099;43.406;3.698;2023-05-17T11:58:13;20.70;85.50
70548;DHT22;58099;43.406;3.698;2023-05-17T12:00:40;20.20;86.60
70548;DHT22;58099;43.406;3.698;2023-05-17T12:03:20;20.30;86.60
70548;DHT22;58099;43.406;3.698;2023-05-17T12:05:47;20.30;86.30
70548;DHT22;58099;43.406;3.698;2023-05-17T12:08:19;20.50;87.50
70548;DHT22;58099;43.406;3.698;2023-05-17T12:10:50;21.10;86.60
70548;DHT22;58099;43.406;3.698;2023-05-17T12:13:17;22.20;83.60
70548;DHT22;58099;43.406;3.698;2023-05-17T12:15:44;21.60;82.70
70548;DHT22;58099;43.406;3.698;2023-05-17T12:18:12;21.20;82.80
70548;DHT22;58099;43.406;3.698;2023-05-17T12:20:55;21.00;82.40
70548;DHT22;58099;43.406;3.698;2023-05-17T12:23:32;20.70;83.10
70548;DHT22;58099;43.406;3.698;2023-05-17T12:28:27;20.60;83.40
70548;DHT22;58099;43.406;3.698;2023-05-17T12:30:54;20.10;85.40
70548;DHT22;58099;43.406;3.698;2023-05-17T12:33:22;20.40;84.70
70548;DHT22;58099;43.406;3.698;2023-05-17T12:35:48;20.40;83.90
70548;DHT22;58099;43.406;3.698;2023-05-17T12:38:14;20.40;84.70
70548;DHT22;58099;43.406;3.698;2023-05-17T12:40:40;19.60;85.30
70548;DHT22;58099;43.406;3.698;2023-05-17T12:43:08;19.70;84.70
70548;DHT22;58099;43.406;3.698;2023-05-17T12:45:34;19.70;84.70
70548;DHT22;58099;43.406;3.698;2023-05-17T12:47:59;19.60;85.80
70548;DHT22;58099;43.406;3.698;2023-05-17T12:50:29;19.40;87.80
70548;DHT22;58099;43.406;3.698;2023-05-17T12:52:55;19.60;88.40
70548;DHT22;58099;43.406;3.698;2023-05-17T12:55:21;19.90;86.10
70548;DHT22;58099;43.406;3.698;2023-05-17T12:57:53;19.80;84.40
70548;DHT22;58099;43.406;3.698;2023-05-17T13:00:19;20.30;84.50
70548;DHT22;58099;43.406;3.698;2023-05-17T13:02:46;20.00;84.50
70548;DHT22;58099;43.406;3.698;2023-05-17T13:05:18;20.10;85.40
70548;DHT22;58099;43.406;3.698;2023-05-17T13:07:47;20.20;84.40
70548;DHT22;58099;43.406;3.698;2023-05-17T13:10:20;20.00;84.50
70548;DHT22;58099;43.406;3.698;2023-05-17T13:12:59;20.20;84.50
70548;DHT22;58099;43.406;3.698;2023-05-17T13:15:29;19.60;87.60
70548;DHT22;58099;43.406;3.698;2023-05-17T13:17:55;19.70;88.50
70548;DHT22;58099;43.406;3.698;2023-05-17T13:20:21;19.40;89.10
70548;DHT22;58099;43.406;3.698;2023-05-17T13:22:47;19.60;88.40
70548;DHT22;58099;43.406;3.698;2023-05-17T13:25:13;19.50;88.20
70548;DHT22;58099;43.406;3.698;2023-05-17T13:27:39;19.80;87.70
70548;DHT22;58099;43.406;3.698;2023-05-17T13:30:11;19.90;87.50
70548;DHT22;58099;43.406;3.698;2023-05-17T13:32:37;19.70;87.90
70548;DHT22;58099;43.406;3.698;2023-05-17T13:35:03;19.40;87.60
70548;DHT22;58099;43.406;3.698;2023-05-17T13:37:29;19.10;89.40
70548;DHT22;58099;43.406;3.698;2023-05-17T13:39:54;19.00;90.00
70548;DHT22;58099;43.406;3.698;2023-05-17T13:42:21;19.10;90.30
70548;DHT22;58099;43.406;3.698;2023-05-17T13:44:47;19.40;90.00
70548;DHT22;58099;43.406;3.698;2023-05-17T13:47:13;19.70;87.90
70548;DHT22;58099;43.406;3.698;2023-05-17T13:49:39;19.70;87.80
70548;DHT22;58099;43.406;3.698;2023-05-17T13:52:05;19.70;87.70
70548;DHT22;58099;43.406;3.698;2023-05-17T13:54:36;20.00;86.60
70548;DHT22;58099;43.406;3.698;2023-05-17T13:57:04;20.10;84.80
70548;DHT22;58099;43.406;3.698;2023-05-17T13:59:30;20.20;85.60
70548;DHT22;58099;43.406;3.698;2023-05-17T14:01:55;20.20;86.00
70548;DHT22;58099;43.406;3.698;2023-05-17T14:04:22;20.30;84.60
70548;DHT22;58099;43.406;3.698;2023-05-17T14:06:48;20.30;83.60
70548;DHT22;58099;43.406;3.698;2023-05-17T14:09:14;20.40;84.50
70548;DHT22;58099;43.406;3.698;2023-05-17T14:11:39;20.40;84.10
70548;DHT22;58099;43.406;3.698;2023-05-17T14:14:05;20.30;85.10
70548;DHT22;58099;43.406;3.698;2023-05-17T14:16:31;20.30;85.60
70548;DHT22;58099;43.406;3.698;2023-05-17T14:18:57;20.30;84.70
70548;DHT22;58099;43.406;3.698;2023-05-17T14:21:22;20.50;83.60
70548;DHT22;58099;43.406;3.698;2023-05-17T14:23:48;20.60;84.30
70548;DHT22;58099;43.406;3.698;2023-05-17T14:26:14;20.60;84.10
70548;DHT22;58099;43.406;3.698;2023-05-17T14:28:40;20.80;86.20
70548;DHT22;58099;43.406;3.698;2023-05-17T14:31:06;20.70;86.50
70548;DHT22;58099;43.406;3.698;2023-05-17T14:33:32;20.60;87.00
70548;DHT22;58099;43.406;3.698;2023-05-17T14:35:58;20.30;87.40
70548;DHT22;58099;43.406;3.698;2023-05-17T14:38:23;20.20;87.80
70548;DHT22;58099;43.406;3.698;2023-05-17T14:40:49;19.90;87.20
70548;DHT22;58099;43.406;3.698;2023-05-17T14:43:15;19.60;88.00
70548;DHT22;58099;43.406;3.698;2023-05-17T14:45:41;19.60;87.70
70548;DHT22;58099;43.406;3.698;2023-05-17T14:48:07;19.60;87.00
70548;DHT22;58099;43.406;3.698;2023-05-17T14:50:33;19.70;86.80
70548;DHT22;58099;43.406;3.698;2023-05-17T14:52:59;19.90;86.60
70548;DHT22;58099;43.406;3.698;2023-05-17T14:55:24;20.10;85.80
70548;DHT22;58099;43.406;3.698;2023-05-17T14:57:55;20.30;85.00
70548;DHT22;58099;43.406;3.698;2023-05-17T15:00:22;20.30;86.30
70548;DHT22;58099;43.406;3.698;2023-05-17T15:02:49;20.40;87.20
70548;DHT22;58099;43.406;3.698;2023-05-17T15:05:16;20.50;83.90
70548;DHT22;58099;43.406;3.698;2023-05-17T15:07:42;20.60;84.10
70548;DHT22;58099;43.406;3.698;2023-05-17T15:10:08;20.70;83.80
70548;DHT22;58099;43.406;3.698;2023-05-17T15:12:35;20.90;83.50
70548;DHT22;58099;43.406;3.698;2023-05-17T15:15:01;20.90;82.90
70548;DHT22;58099;43.406;3.698;2023-05-17T15:17:27;21.00;82.20
70548;DHT22;58099;43.406;3.698;2023-05-17T15:19:53;21.00;82.10
70548;DHT22;58099;43.406;3.698;2023-05-17T15:22:18;21.00;83.90
70548;DHT22;58099;43.406;3.698;2023-05-17T15:24:45;20.70;84.00
70548;DHT22;58099;43.406;3.698;2023-05-17T15:27:11;20.60;86.10
70548;DHT22;58099;43.406;3.698;2023-05-17T15:29:40;20.50;86.10
70548;DHT22;58099;43.406;3.698;2023-05-17T15:32:06;20.40;86.10
70548;DHT22;58099;43.406;3.698;2023-05-17T15:34:32;20.50;85.70
70548;DHT22;58099;43.406;3.698;2023-05-17T15:36:58;20.40;86.30
70548;DHT22;58099;43.406;3.698;2023-05-17T15:39:24;20.30;86.40
70548;DHT22;58099;43.406;3.698;2023-05-17T15:41:50;20.20;87.10
70548;DHT22;58099;43.406;3.698;2023-05-17T15:44:15;20.30;86.80
70548;DHT22;58099;43.406;3.698;2023-05-17T15:46:43;20.40;86.90
70548;DHT22;58099;43.406;3.698;2023-05-17T15:49:08;20.50;86.30
70548;DHT22;58099;43.406;3.698;2023-05-17T15:51:34;20.60;85.30
70548;DHT22;58099;43.406;3.698;2023-05-17T15:54:00;20.40;85.90
70548;DHT22;58099;43.406;3.698;2023-05-17T15:56:26;20.30;85.50
70548;DHT22;58099;43.406;3.698;2023-05-17T15:58:52;20.50;86.40
70548;DHT22;58099;43.406;3.698;2023-05-17T16:01:17;20.40;87.10
70548;DHT22;58099;43.406;3.698;2023-05-17T16:03:43;20.30;87.90
70548;DHT22;58099;43.406;3.698;2023-05-17T16:06:09;20.30;87.50
70548;DHT22;58099;43.406;3.698;2023-05-17T16:08:35;20.40;87.20
70548;DHT22;58099;43.406;3.698;2023-05-17T16:11:01;20.30;85.50
70548;DHT22;58099;43.406;3.698;2023-05-17T16:13:27;20.20;87.10
70548;DHT22;58099;43.406;3.698;2023-05-17T16:15:53;20.00;87.90
70548;DHT22;58099;43.406;3.698;2023-05-17T16:18:19;19.50;90.30
70548;DHT22;58099;43.406;3.698;2023-05-17T16:20:45;19.20;90.70
70548;DHT22;58099;43.406;3.698;2023-05-17T16:23:11;18.90;91.30
70548;DHT22;58099;43.406;3.698;2023-05-17T16:25:38;18.70;91.50
70548;DHT22;58099;43.406;3.698;2023-05-17T16:28:04;18.60;91.70
70548;DHT22;58099;43.406;3.698;2023-05-17T16:30:29;18.50;91.90
70548;DHT22;58099;43.406;3.698;2023-05-17T16:32:56;18.60;94.00
70548;DHT22;58099;43.406;3.698;2023-05-17T16:35:21;18.20;96.30
70548;DHT22;58099;43.406;3.698;2023-05-17T16:37:48;17.70;96.80
70548;DHT22;58099;43.406;3.698;2023-05-17T16:40:13;17.70;96.80
70548;DHT22;58099;43.406;3.698;2023-05-17T16:42:39;17.70;97.30
70548;DHT22;58099;43.406;3.698;2023-05-17T16:45:05;17.40;97.50
70548;DHT22;58099;43.406;3.698;2023-05-17T16:47:31;17.40;96.80
70548;DHT22;58099;43.406;3.698;2023-05-17T16:49:57;17.50;96.40
70548;DHT22;58099;43.406;3.698;2023-05-17T16:52:24;17.80;94.70
70548;DHT22;58099;43.406;3.698;2023-05-17T16:54:50;18.20;92.70
70548;DHT22;58099;43.406;3.698;2023-05-17T16:57:16;18.30;92.10
70548;DHT22;58099;43.406;3.698;2023-05-17T16:59:42;18.50;91.60
70548;DHT22;58099;43.406;3.698;2023-05-17T17:02:08;18.70;90.30
70548;DHT22;58099;43.406;3.698;2023-05-17T17:04:35;18.90;90.40
70548;DHT22;58099;43.406;3.698;2023-05-17T17:07:01;19.00;89.00
70548;DHT22;58099;43.406;3.698;2023-05-17T17:09:27;19.20;88.80
70548;DHT22;58099;43.406;3.698;2023-05-17T17:11:52;19.20;88.10
70548;DHT22;58099;43.406;3.698;2023-05-17T17:14:18;19.30;87.60
70548;DHT22;58099;43.406;3.698;2023-05-17T17:16:44;19.40;85.90
70548;DHT22;58099;43.406;3.698;2023-05-17T17:19:10;19.50;85.10
70548;DHT22;58099;43.406;3.698;2023-05-17T17:21:36;19.50;85.40
70548;DHT22;58099;43.406;3.698;2023-05-17T17:24:05;19.50;84.80
70548;DHT22;58099;43.406;3.698;2023-05-17T17:26:31;19.50;84.30
70548;DHT22;58099;43.406;3.698;2023-05-17T17:28:58;19.50;84.20
70548;DHT22;58099;43.406;3.698;2023-05-17T17:31:24;19.50;84.80
70548;DHT22;58099;43.406;3.698;2023-05-17T17:33:52;19.50;84.50
70548;DHT22;58099;43.406;3.698;2023-05-17T17:36:18;19.50;84.60
70548;DHT22;58099;43.406;3.698;2023-05-17T17:38:44;19.50;84.30
70548;DHT22;58099;43.406;3.698;2023-05-17T17:41:10;19.50;84.20
70548;DHT22;58099;43.406;3.698;2023-05-17T17:43:36;19.50;84.90
70548;DHT22;58099;43.406;3.698;2023-05-17T17:46:01;19.50;84.20
70548;DHT22;58099;43.406;3.698;2023-05-17T17:48:27;19.50;84.20
70548;DHT22;58099;43.406;3.698;2023-05-17T17:50:53;19.40;84.60
70548;DHT22;58099;43.406;3.698;2023-05-17T17:53:19;19.40;84.10
70548;DHT22;58099;43.406;3.698;2023-05-17T17:55:44;19.30;84.40
70548;DHT22;58099;43.406;3.698;2023-05-17T17:58:10;19.30;84.00
70548;DHT22;58099;43.406;3.698;2023-05-17T18:00:36;19.30;84.20
70548;DHT22;58099;43.406;3.698;2023-05-17T18:03:01;19.30;84.80
70548;DHT22;58099;43.406;3.698;2023-05-17T18:05:27;19.30;85.20
70548;DHT22;58099;43.406;3.698;2023-05-17T18:07:53;19.20;84.80
70548;DHT22;58099;43.406;3.698;2023-05-17T18:10:19;19.20;84.70
70548;DHT22;58099;43.406;3.698;2023-05-17T18:12:45;19.10;84.90
70548;DHT22;58099;43.406;3.698;2023-05-17T18:15:10;19.10;85.00
70548;DHT22;58099;43.406;3.698;2023-05-17T18:17:37;19.10;84.50
70548;DHT22;58099;43.406;3.698;2023-05-17T18:20:03;19.00;84.40
70548;DHT22;58099;43.406;3.698;2023-05-17T18:22:31;19.00;84.50
70548;DHT22;58099;43.406;3.698;2023-05-17T18:24:57;19.00;84.10
70548;DHT22;58099;43.406;3.698;2023-05-17T18:27:23;19.00;84.10
70548;DHT22;58099;43.406;3.698;2023-05-17T18:29:49;19.00;84.10
70548;DHT22;58099;43.406;3.698;2023-05-17T18:32:14;19.00;84.30
70548;DHT22;58099;43.406;3.698;2023-05-17T18:34:40;18.90;84.40
70548;DHT22;58099;43.406;3.698;2023-05-17T18:37:06;18.90;84.30
70548;DHT22;58099;43.406;3.698;2023-05-17T18:39:31;18.90;84.30
70548;DHT22;58099;43.406;3.698;2023-05-17T18:41:57;18.90;84.40
70548;DHT22;58099;43.406;3.698;2023-05-17T18:44:23;18.90;84.50
70548;DHT22;58099;43.406;3.698;2023-05-17T18:46:49;18.90;84.50
70548;DHT22;58099;43.406;3.698;2023-05-17T18:49:15;18.80;84.60
70548;DHT22;58099;43.406;3.698;2023-05-17T18:51:41;18.80;84.60
70548;DHT22;58099;43.406;3.698;2023-05-17T18:54:07;18.70;84.60
70548;DHT22;58099;43.406;3.698;2023-05-17T18:56:33;18.70;84.70
70548;DHT22;58099;43.406;3.698;2023-05-17T18:59:00;18.70;84.60
70548;DHT22;58099;43.406;3.698;2023-05-17T19:01:26;18.60;84.60
70548;DHT22;58099;43.406;3.698;2023-05-17T19:03:52;18.60;84.70
70548;DHT22;58099;43.406;3.698;2023-05-17T19:06:21;18.60;84.90
70548;DHT22;58099;43.406;3.698;2023-05-17T19:08:48;18.60;85.00
70548;DHT22;58099;43.406;3.698;2023-05-17T19:11:15;18.50;84.80
70548;DHT22;58099;43.406;3.698;2023-05-17T19:13:41;18.50;85.60
70548;DHT22;58099;43.406;3.698;2023-05-17T19:16:07;18.40;85.10
70548;DHT22;58099;43.406;3.698;2023-05-17T19:18:32;18.40;85.30
70548;DHT22;58099;43.406;3.698;2023-05-17T19:20:58;18.40;85.40
70548;DHT22;58099;43.406;3.698;2023-05-17T19:23:24;18.30;85.70
70548;DHT22;58099;43.406;3.698;2023-05-17T19:25:50;18.30;85.50
70548;DHT22;58099;43.406;3.698;2023-05-17T19:28:17;18.30;85.60
70548;DHT22;58099;43.406;3.698;2023-05-17T19:30:43;18.20;85.60
70548;DHT22;58099;43.406;3.698;2023-05-17T19:33:09;18.20;85.70
70548;DHT22;58099;43.406;3.698;2023-05-17T19:35:36;18.20;86.30
70548;DHT22;58099;43.406;3.698;2023-05-17T19:38:05;18.20;85.80
70548;DHT22;58099;43.406;3.698;2023-05-17T19:40:30;18.10;85.80
70548;DHT22;58099;43.406;3.698;2023-05-17T19:42:56;18.10;85.90
70548;DHT22;58099;43.406;3.698;2023-05-17T19:45:22;18.00;86.10
70548;DHT22;58099;43.406;3.698;2023-05-17T19:47:48;18.00;86.80
70548;DHT22;58099;43.406;3.698;2023-05-17T19:50:13;17.90;87.00
70548;DHT22;58099;43.406;3.698;2023-05-17T19:52:39;17.90;87.30
70548;DHT22;58099;43.406;3.698;2023-05-17T19:55:05;17.80;87.60
70548;DHT22;58099;43.406;3.698;2023-05-17T19:57:31;17.80;87.80
70548;DHT22;58099;43.406;3.698;2023-05-17T19:59:57;17.80;88.10
70548;DHT22;58099;43.406;3.698;2023-05-17T20:02:22;17.80;88.30
70548;DHT22;58099;43.406;3.698;2023-05-17T20:04:48;17.70;88.50
70548;DHT22;58099;43.406;3.698;2023-05-17T20:07:14;17.70;88.70
70548;DHT22;58099;43.406;3.698;2023-05-17T20:09:41;17.60;88.80